Friday, July 20, 2018, 12:43 PM EDT
Back to Local

KBTP, Butler, Butler County Airport/k W Scholter Field

Location: Renfrew, PA, United States Lat: 40.783
Local Time: 12:43 PM EDT (16:43 GMT) Lon: -79.95
Time Zone: US/Eastern Elev: 1246 ft

Show me the last for .
Show Decoded

2018-07-20 11:56 METAR KBTP 201556Z AUTO 18011G16KT 10SM CLR 28/17 A3002 RMK AO2 SLP162 T02780167
                 =
2018-07-20 09:56 METAR KBTP 201356Z AUTO 15008KT 10SM CLR 24/16 A3005 RMK AO2 SLP172 T02440161 =
2018-07-20 08:56 METAR KBTP 201256Z AUTO 14007KT 10SM CLR 23/16 A3005 RMK AO2 SLP174 T02280156 =
2018-07-20 07:56 METAR KBTP 201156Z AUTO 12007KT 10SM FEW070 21/15 A3006 RMK AO2 SLP175 6////
                 7//// T02110150 10211 20189 53003 =
2018-07-20 06:56 METAR KBTP 201056Z AUTO 12006KT 10SM FEW065 19/14 A3005 RMK AO2 SLP172 T01940144
                 =
2018-07-20 05:56 METAR KBTP 200956Z AUTO 12006KT 10SM SCT070 19/14 A3005 RMK AO2 SLP172 T01890144
                 =
2018-07-20 04:56 METAR KBTP 200856Z AUTO 12005KT 10SM SCT070 19/14 A3005 RMK AO2 SLP172 6////
                 T01940144 55001 =
2018-07-20 03:56 METAR KBTP 200756Z AUTO 12004KT 10SM BKN070 19/14 A3005 RMK AO2 SLP171 T01940144
                 =
2018-07-20 02:56 METAR KBTP 200656Z AUTO 12006KT 10SM FEW070 19/14 A3005 RMK AO2 SLP173 T01890144
                 =
2018-07-20 01:56 METAR KBTP 200556Z AUTO 11005KT 10SM CLR 19/14 A3005 RMK AO2 SLP174 T01940144
                 10261 20194 58002 =
2018-07-20 00:56 METAR KBTP 200456Z AUTO 12005KT 10SM CLR 21/15 A3006 RMK AO2 SLP178 T02060150
                 402830117 =
2018-07-19 23:56 METAR KBTP 200356Z AUTO 12005KT 10SM CLR 22/15 A3007 RMK AO2 SLP177 T02170150 =
2018-07-19 22:56 METAR KBTP 200256Z AUTO 11005KT 10SM CLR 22/15 A3006 RMK AO2 SLP176 T02170150
                 53003 =
2018-07-19 21:56 METAR KBTP 200156Z AUTO 08004KT 10SM CLR 21/15 A3005 RMK AO2 SLP174 T02060150 =
2018-07-19 20:56 METAR KBTP 200056Z AUTO 10003KT 10SM CLR 24/14 A3005 RMK AO2 SLP173 T02390139 =
2018-07-19 19:56 METAR KBTP 192356Z AUTO 12003KT 10SM CLR 26/13 A3005 RMK AO2 SLP173 T02610133
                 10283 20261 56007 =
2018-07-19 18:56 METAR KBTP 192256Z AUTO 15006KT 10SM CLR 27/13 A3005 RMK AO2 SLP176 T02720128 =
2018-07-19 17:56 METAR KBTP 192156Z AUTO VRB05KT 10SM CLR 28/13 A3006 RMK AO2 SLP178 T02780133 =
2018-07-19 16:56 METAR KBTP 192056Z AUTO VRB04KT 10SM CLR 28/14 A3007 RMK AO2 SLP181 T02780139
                 56011 =
2018-07-19 15:56 METAR KBTP 191956Z AUTO 10007KT 10SM CLR 28/13 A3008 RMK AO2 SLP184 T02780133 =
2018-07-19 14:56 METAR KBTP 191856Z AUTO VRB05KT 10SM FEW055 27/13 A3009 RMK AO2 SLP189 T02720133
                 =
2018-07-19 13:56 METAR KBTP 191756Z AUTO 00000KT 10SM CLR 27/13 A3010 RMK AO2 SLP192 T02720128
                 10272 20167 58012 =
2018-07-19 12:56 METAR KBTP 191656Z AUTO 15007KT 130V330 10SM CLR 26/12 A3012 RMK AO2 SLP199
                 T02560122 =

Support USWX by starting your Amazon purchase here.